createdAt,value
2019-01-14T00:02:35.394Z,17.27
2019-01-14T00:07:40.069Z,22.83
2019-01-14T00:12:44.762Z,9.30
2019-01-14T00:17:49.604Z,10.40
2019-01-14T00:22:54.262Z,15.27
2019-01-14T00:27:58.928Z,12.63
2019-01-14T00:33:04.688Z,12.03
2019-01-14T00:38:09.360Z,23.90
2019-01-14T00:43:14.032Z,16.93
2019-01-14T00:48:18.704Z,14.53
2019-01-14T00:53:23.384Z,17.67
2019-01-14T00:58:28.345Z,16.00
2019-01-14T01:03:33.030Z,21.43
2019-01-14T01:08:37.770Z,20.27
2019-01-14T01:13:42.535Z,17.00
2019-01-14T01:18:47.316Z,16.60
2019-01-14T01:23:52.010Z,15.63
2019-01-14T01:28:56.640Z,16.93
2019-01-14T01:34:01.338Z,17.97
2019-01-14T01:39:07.757Z,22.00
2019-01-14T01:44:12.434Z,19.17
2019-01-14T01:49:17.419Z,16.00
2019-01-14T01:54:22.381Z,21.47
2019-01-14T01:59:27.083Z,21.07
2019-01-14T02:04:31.830Z,14.33
2019-01-14T02:09:36.539Z,14.93
2019-01-14T02:14:41.657Z,21.10
2019-01-14T02:19:46.323Z,27.63
2019-01-14T02:24:50.959Z,13.40
2019-01-14T02:29:56.183Z,20.00
2019-01-14T02:35:00.878Z,24.17
2019-01-14T02:40:07.673Z,19.13
2019-01-14T02:45:12.999Z,24.73
2019-01-14T02:50:17.892Z,23.62
2019-01-14T02:55:22.645Z,23.80
2019-01-14T03:00:28.173Z,26.23
2019-01-14T03:05:32.844Z,29.83
2019-01-14T03:10:37.511Z,22.77
2019-01-14T03:15:42.183Z,12.73
2019-01-14T03:20:47.107Z,19.43
2019-01-14T03:25:58.141Z,15.63
2019-01-14T03:30:58.522Z,16.33
2019-01-14T03:36:03.329Z,19.43
2019-01-14T03:41:08.177Z,13.90
2019-01-14T03:46:12.816Z,23.73
2019-01-14T03:51:17.572Z,22.47
2019-01-14T03:56:22.248Z,25.12
2019-01-14T04:01:26.872Z,11.87
2019-01-14T04:06:31.577Z,16.30
2019-01-14T04:11:36.391Z,20.20
2019-01-14T04:16:41.216Z,17.67
2019-01-14T04:21:45.880Z,24.03
2019-01-14T04:26:50.624Z,19.37
2019-01-14T04:31:55.307Z,18.93
2019-01-14T04:37:00.016Z,9.67
2019-01-14T04:42:04.844Z,10.93
2019-01-14T04:47:09.512Z,15.33
2019-01-14T04:52:14.252Z,17.87
2019-01-14T04:57:18.940Z,15.30
2019-01-14T05:02:23.624Z,12.77
2019-01-14T05:07:29.689Z,14.80
2019-01-14T05:12:34.663Z,16.63
2019-01-14T05:17:39.396Z,19.03
2019-01-14T05:22:44.295Z,9.33
2019-01-14T05:27:49.119Z,12.80
2019-01-14T05:32:53.847Z,14.60
2019-01-14T05:37:58.573Z,8.83
2019-01-14T05:43:03.333Z,11.43
2019-01-14T05:48:08.210Z,10.73
2019-01-14T05:53:13.027Z,8.20
2019-01-14T05:58:17.800Z,9.10
2019-01-14T06:03:22.553Z,12.67
2019-01-14T06:08:27.269Z,8.07
2019-01-14T06:13:32.012Z,11.90
2019-01-14T06:18:36.719Z,10.27
2019-01-14T06:23:41.452Z,12.17
2019-01-14T06:28:46.107Z,12.10
2019-01-14T06:33:51.178Z,16.13
2019-01-14T06:38:55.998Z,9.10
2019-01-14T06:44:00.972Z,14.07
2019-01-14T06:49:05.702Z,14.83
2019-01-14T06:54:10.420Z,14.23
2019-01-14T06:59:15.113Z,8.57
2019-01-14T07:04:19.850Z,5.27
2019-01-14T07:09:24.513Z,6.93
2019-01-14T07:14:29.243Z,10.07
2019-01-14T07:19:33.961Z,9.07
2019-01-14T07:24:38.630Z,8.47
2019-01-14T07:29:43.312Z,11.00
2019-01-14T07:34:48.160Z,8.57
2019-01-14T07:39:52.928Z,5.13
2019-01-14T07:44:57.665Z,14.07
2019-01-14T07:50:02.432Z,10.13
2019-01-14T07:55:07.346Z,8.67
2019-01-14T08:00:23.994Z,6.57
2019-01-14T08:05:28.704Z,7.20
2019-01-14T08:10:33.359Z,11.20
2019-01-14T08:15:38.113Z,11.57
2019-01-14T08:20:42.876Z,4.53
2019-01-14T08:25:47.631Z,16.00
2019-01-14T08:30:56.414Z,9.73
2019-01-14T08:36:01.434Z,9.63
2019-01-14T08:41:07.531Z,8.17
2019-01-14T08:46:12.231Z,10.10
2019-01-14T08:51:17.861Z,11.63
2019-01-14T08:56:22.672Z,15.17
2019-01-14T09:01:27.693Z,10.30
2019-01-14T09:06:32.367Z,8.10
2019-01-14T09:11:37.193Z,11.57
2019-01-14T09:16:42.030Z,6.73
2019-01-14T09:21:46.745Z,10.17
2019-01-14T09:26:51.407Z,11.47
2019-01-14T09:31:56.849Z,9.47
2019-01-14T09:37:01.517Z,13.93
2019-01-14T09:42:06.297Z,12.23
2019-01-14T09:47:10.993Z,10.13
2019-01-14T09:52:15.699Z,11.47
2019-01-14T09:57:20.387Z,6.70
2019-01-14T10:02:25.053Z,9.57
2019-01-14T10:07:30.141Z,9.33
2019-01-14T10:12:34.817Z,9.27
2019-01-14T10:17:40.216Z,12.80
2019-01-14T10:22:45.075Z,6.63
2019-01-14T10:27:49.936Z,7.43
2019-01-14T10:32:54.690Z,9.63
2019-01-14T10:37:59.364Z,7.93
2019-01-14T10:43:04.678Z,8.73
2019-01-14T10:48:09.426Z,7.67
2019-01-14T10:53:14.186Z,9.77
2019-01-14T10:58:18.870Z,9.60
2019-01-14T11:03:24.540Z,6.27
2019-01-14T11:08:29.329Z,10.43
2019-01-14T11:13:34.039Z,13.13
2019-01-14T11:18:47.211Z,8.40
2019-01-14T11:23:51.879Z,7.97
2019-01-14T11:28:56.606Z,4.20
2019-01-14T11:34:01.350Z,8.13
2019-01-14T11:39:17.727Z,7.47
2019-01-14T11:44:22.436Z,3.63
2019-01-14T11:49:27.178Z,5.30
2019-01-14T11:54:31.906Z,3.23
2019-01-14T11:59:36.661Z,2.47
2019-01-14T12:04:41.378Z,2.47
2019-01-14T12:09:46.070Z,9.60
2019-01-14T12:14:50.808Z,6.33
2019-01-14T12:19:55.871Z,4.70
2019-01-14T12:25:00.638Z,4.80
2019-01-14T12:30:25.050Z,4.67
2019-01-14T12:35:49.136Z,6.03
2019-01-14T12:40:53.882Z,4.50
2019-01-14T12:45:58.553Z,3.90
2019-01-14T12:51:03.206Z,4.43
2019-01-14T12:56:08.345Z,5.20
2019-01-14T13:01:12.993Z,1.87
2019-01-14T13:06:18.496Z,4.00
2019-01-14T13:11:23.419Z,3.80
2019-01-14T13:16:28.205Z,2.37
2019-01-14T13:21:33.300Z,3.97
2019-01-14T13:26:37.950Z,4.10
2019-01-14T13:31:55.000Z,2.83
2019-01-14T13:36:59.797Z,3.37
2019-01-14T13:42:04.639Z,5.70
2019-01-14T13:47:09.402Z,2.33
2019-01-14T13:52:14.073Z,5.97
2019-01-14T13:57:18.763Z,3.90
2019-01-14T14:02:23.536Z,4.07
2019-01-14T14:07:28.304Z,3.90
2019-01-14T14:12:32.974Z,4.60
2019-01-14T14:17:37.703Z,5.03
2019-01-14T14:22:42.390Z,5.30
2019-01-14T14:27:47.092Z,4.93
2019-01-14T14:32:53.719Z,4.47
2019-01-14T14:38:01.434Z,8.03
2019-01-14T14:43:05.444Z,6.17
2019-01-14T14:48:10.168Z,6.30
2019-01-14T14:53:14.850Z,7.77
2019-01-14T14:58:19.776Z,4.40
2019-01-14T15:03:36.823Z,3.77
2019-01-14T15:08:41.492Z,5.73
2019-01-14T15:13:46.266Z,3.63
2019-01-14T15:18:50.923Z,5.20
2019-01-14T15:23:55.877Z,5.97
2019-01-14T15:29:00.811Z,6.50
2019-01-14T15:34:05.576Z,6.83
2019-01-14T15:39:10.617Z,5.97
2019-01-14T15:44:15.343Z,4.33
2019-01-14T15:49:20.010Z,5.70
2019-01-14T15:54:24.717Z,2.30
2019-01-14T15:59:29.388Z,8.80
2019-01-14T16:04:34.061Z,3.23
2019-01-14T16:09:38.722Z,5.00
2019-01-14T16:14:43.414Z,3.33
2019-01-14T16:19:48.104Z,3.10
2019-01-14T16:24:52.858Z,3.60
2019-01-14T16:29:57.575Z,2.90
2019-01-14T16:35:02.313Z,5.47
2019-01-14T16:40:07.353Z,6.83
2019-01-14T16:45:32.600Z,4.62
2019-01-14T16:50:37.347Z,4.70
2019-01-14T16:56:01.124Z,5.70
2019-01-14T17:01:05.967Z,5.00
2019-01-14T17:06:11.002Z,3.27
2019-01-14T17:11:15.712Z,8.57
2019-01-14T17:16:20.527Z,5.73
2019-01-14T17:21:25.277Z,5.63
2019-01-14T17:26:29.954Z,5.40
2019-01-14T17:31:34.630Z,6.37
2019-01-14T17:36:39.343Z,3.67
2019-01-14T17:41:45.184Z,4.87
2019-01-14T17:46:49.875Z,5.10
2019-01-14T17:51:54.671Z,5.50
2019-01-14T17:56:59.349Z,7.80
2019-01-14T18:02:04.644Z,4.87
2019-01-14T18:07:09.353Z,4.07
2019-01-14T18:12:14.365Z,4.00
2019-01-14T18:17:19.345Z,5.93
2019-01-14T18:22:24.163Z,7.90
2019-01-14T18:27:29.413Z,6.67
2019-01-14T18:32:34.117Z,11.13
2019-01-14T18:37:38.964Z,4.97
2019-01-14T18:42:43.884Z,4.00
2019-01-14T18:47:49.222Z,4.63
2019-01-14T18:52:54.021Z,8.53
2019-01-14T18:57:58.719Z,11.00
2019-01-14T19:03:03.476Z,6.90
2019-01-14T19:08:08.173Z,6.73
2019-01-14T19:13:12.905Z,5.17
2019-01-14T19:18:17.668Z,5.63
2019-01-14T19:23:22.472Z,7.70
2019-01-14T19:28:27.181Z,9.70
2019-01-14T19:33:32.169Z,12.83
2019-01-14T19:38:36.858Z,7.53
2019-01-14T19:43:41.552Z,10.87
2019-01-14T19:48:46.375Z,8.47
2019-01-14T19:53:51.084Z,8.80
2019-01-14T19:58:55.872Z,11.20
2019-01-14T20:04:00.551Z,8.03
2019-01-14T20:09:09.167Z,11.53
2019-01-14T20:14:20.726Z,10.67
2019-01-14T20:19:30.232Z,11.10
2019-01-14T20:24:38.867Z,11.97
2019-01-14T20:29:46.627Z,14.20
2019-01-14T20:34:59.050Z,11.50
2019-01-14T20:40:07.515Z,15.07
2019-01-14T20:45:16.706Z,8.63
2019-01-14T20:50:22.273Z,9.97
2019-01-14T20:55:27.401Z,16.13
2019-01-14T21:00:32.429Z,8.27
2019-01-14T21:05:37.494Z,9.03
2019-01-14T21:10:54.446Z,9.57
2019-01-14T21:16:03.018Z,10.83
2019-01-14T21:21:07.317Z,15.97
2019-01-14T21:26:12.416Z,12.80
2019-01-14T21:31:17.375Z,11.23
2019-01-14T21:36:22.224Z,11.80
2019-01-14T21:41:31.142Z,8.83
2019-01-14T21:46:33.749Z,7.60
2019-01-14T21:51:38.730Z,9.20
2019-01-14T21:56:43.663Z,10.57
2019-01-14T22:01:48.914Z,11.73
2019-01-14T22:06:53.974Z,17.23
2019-01-14T22:11:58.838Z,16.60
2019-01-14T22:17:03.722Z,15.30
2019-01-14T22:22:08.702Z,15.63
2019-01-14T22:27:14.018Z,9.57
2019-01-14T22:32:18.870Z,8.50
2019-01-14T22:37:23.893Z,7.17
2019-01-14T22:42:28.862Z,9.17
2019-01-14T22:47:33.746Z,9.87
2019-01-14T22:52:38.808Z,14.03
2019-01-14T22:57:44.401Z,8.73
2019-01-14T23:02:49.432Z,12.57
2019-01-14T23:07:54.322Z,18.50
2019-01-14T23:12:59.290Z,14.93
2019-01-14T23:18:04.768Z,13.48
2019-01-14T23:23:09.813Z,12.37
2019-01-14T23:28:14.724Z,11.63
2019-01-14T23:33:19.588Z,12.93
2019-01-14T23:38:24.508Z,14.70
2019-01-14T23:43:29.497Z,15.50
2019-01-14T23:48:34.546Z,7.47
2019-01-14T23:53:39.426Z,9.27
2019-01-14T23:58:44.543Z,15.90
